Time;durP1;ratioP1;P1;durP2;ratioP2;P2;SDS_P1;SDS_P2;PMS_P1;PMS_P2;Temp;Humidity;BMP_temperature;BMP_pressure;BME280_temperature;BME280_humidity;BME280_pressure;Samples;Min_cycle;Max_cycle;Signal;HPM_P1;HPM_P2
2023/06/01 00:00:09;;;;;;;9.33;4.13;;;;;;;;;;7337031;19;20014;-78
2023/06/01 00:02:35;;;;;;;11.23;4.32;;;;;;;;;;7342041;19;20853;-76
2023/06/01 00:05:00;;;;;;;11.02;4.03;;;;;;;;;;7362299;19;20409;-76
2023/06/01 00:07:25;;;;;;;10.23;4.00;;;;;;;;;;7359626;19;20745;-77
2023/06/01 00:09:50;;;;;;;9.27;3.75;;;;;;;;;;7356313;19;20283;-78
2023/06/01 00:12:15;;;;;;;10.70;3.67;;;;;;;;;;7355537;19;20021;-76
2023/06/01 00:14:41;;;;;;;9.77;3.67;;;;;;;;;;7357408;19;20049;-77
2023/06/01 00:17:07;;;;;;;8.37;3.50;;;;;;;;;;7351717;19;20010;-77
2023/06/01 00:19:32;;;;;;;9.68;3.97;;;;;;;;;;7351195;19;20006;-77
2023/06/01 00:21:57;;;;;;;7.50;3.70;;;;;;;;;;7359198;19;20334;-76
2023/06/01 00:24:23;;;;;;;11.40;3.97;;;;;;;;;;7344757;19;20874;-77
2023/06/01 00:26:48;;;;;;;16.20;4.43;;;;;;;;;;7361022;19;20002;-76
2023/06/01 00:29:13;;;;;;;8.47;3.53;;;;;;;;;;7359353;19;23663;-76
2023/06/01 00:31:39;;;;;;;9.07;3.75;;;;;;;;;;7347802;19;20355;-80
2023/06/01 00:34:04;;;;;;;8.32;4.03;;;;;;;;;;7354933;19;20113;-79
2023/06/01 00:36:30;;;;;;;9.57;4.15;;;;;;;;;;7362794;19;20010;-79
2023/06/01 00:39:01;;;;;;;10.10;4.18;;;;;;;;;;7349057;19;20010;-80
2023/06/01 00:41:26;;;;;;;8.95;4.50;;;;;;;;;;7369602;19;20022;-78
2023/06/01 00:43:51;;;;;;;9.93;4.00;;;;;;;;;;7361563;19;20321;-79
2023/06/01 00:46:17;;;;;;;10.65;3.80;;;;;;;;;;7284391;19;21430;-78
2023/06/01 00:48:42;;;;;;;9.53;3.53;;;;;;;;;;7354932;19;20032;-79
2023/06/01 00:51:07;;;;;;;8.35;4.00;;;;;;;;;;7370266;19;20263;-79
2023/06/01 00:53:32;;;;;;;9.30;4.40;;;;;;;;;;7363306;19;20009;-80
2023/06/01 00:55:57;;;;;;;10.80;4.00;;;;;;;;;;7363250;19;20479;-79
2023/06/01 00:58:23;;;;;;;7.60;3.60;;;;;;;;;;7370837;19;20007;-78
2023/06/01 01:00:48;;;;;;;9.63;3.70;;;;;;;;;;7357832;19;20626;-78
2023/06/01 01:03:13;;;;;;;9.73;3.77;;;;;;;;;;7359852;19;20283;-76
2023/06/01 01:05:41;;;;;;;9.10;4.15;;;;;;;;;;7359613;19;20735;-76
2023/06/01 01:08:06;;;;;;;10.95;4.03;;;;;;;;;;7358174;19;20011;-75
2023/06/01 01:10:33;;;;;;;7.95;3.63;;;;;;;;;;7348848;19;20031;-75
2023/06/01 01:13:10;;;;;;;9.68;3.97;;;;;;;;;;7359064;19;20006;-76
2023/06/01 01:15:43;;;;;;;8.80;3.65;;;;;;;;;;7351546;19;20704;-79
2023/06/01 01:18:13;;;;;;;9.57;3.90;;;;;;;;;;7370324;19;20014;-78
2023/06/01 01:20:40;;;;;;;9.50;3.80;;;;;;;;;;7360192;19;20066;-78
2023/06/01 01:23:09;;;;;;;9.80;3.70;;;;;;;;;;7357999;19;20003;-76
2023/06/01 01:25:40;;;;;;;8.20;3.03;;;;;;;;;;7365887;19;20326;-78
2023/06/01 01:28:05;;;;;;;10.13;3.75;;;;;;;;;;7355105;19;20014;-79
2023/06/01 01:30:31;;;;;;;9.83;4.00;;;;;;;;;;7353919;19;20014;-79
2023/06/01 01:32:57;;;;;;;7.47;3.80;;;;;;;;;;7360860;19;20679;-80
2023/06/01 01:35:23;;;;;;;7.22;3.50;;;;;;;;;;7364141;19;20022;-79
2023/06/01 01:37:52;;;;;;;9.68;3.65;;;;;;;;;;7359179;19;20010;-80
2023/06/01 01:40:17;;;;;;;8.80;4.00;;;;;;;;;;7352780;19;20017;-79
2023/06/01 01:42:42;;;;;;;10.57;3.60;;;;;;;;;;7354621;19;20003;-79
2023/06/01 01:45:08;;;;;;;10.55;3.95;;;;;;;;;;7358770;19;20027;-79
2023/06/01 01:47:43;;;;;;;8.80;3.65;;;;;;;;;;7216416;19;20006;-80
2023/06/01 01:50:11;;;;;;;7.15;3.35;;;;;;;;;;7202838;19;20019;-79
2023/06/01 01:52:38;;;;;;;11.68;3.40;;;;;;;;;;7214687;19;20466;-80
2023/06/01 01:55:05;;;;;;;11.18;3.75;;;;;;;;;;7207046;19;21747;-78
2023/06/01 01:57:32;;;;;;;10.88;4.40;;;;;;;;;;7201159;19;20010;-77
2023/06/01 01:59:57;;;;;;;7.88;4.00;;;;;;;;;;7206241;19;20014;-79
2023/06/01 02:02:22;;;;;;;8.18;4.07;;;;;;;;;;7190134;19;20568;-79
2023/06/01 02:04:47;;;;;;;9.52;3.50;;;;;;;;;;7199131;19;20021;-81
2023/06/01 02:07:13;;;;;;;11.52;4.43;;;;;;;;;;7195917;19;20288;-80
2023/06/01 02:09:39;;;;;;;8.50;4.05;;;;;;;;;;7190787;19;20082;-80
2023/06/01 02:12:04;;;;;;;8.95;4.32;;;;;;;;;;7209241;19;20509;-81
2023/06/01 02:14:30;;;;;;;7.72;3.75;;;;;;;;;;7198733;19;20099;-81
2023/06/01 02:16:55;;;;;;;12.05;3.95;;;;;;;;;;7185148;19;21701;-81
2023/06/01 02:19:21;;;;;;;10.82;4.05;;;;;;;;;;7202576;19;20282;-81
2023/06/01 02:21:46;;;;;;;9.45;3.70;;;;;;;;;;7179541;19;20011;-81
2023/06/01 02:24:12;;;;;;;14.90;4.10;;;;;;;;;;7200942;19;20007;-79
2023/06/01 02:26:37;;;;;;;8.63;3.97;;;;;;;;;;7210398;19;20440;-79
2023/06/01 02:29:04;;;;;;;11.77;3.95;;;;;;;;;;7205482;19;20034;-80
2023/06/01 02:31:30;;;;;;;10.02;3.92;;;;;;;;;;7191940;19;20140;-79
2023/06/01 02:33:55;;;;;;;9.55;4.00;;;;;;;;;;7204394;19;20569;-78
2023/06/01 02:36:21;;;;;;;9.93;4.20;;;;;;;;;;7199494;19;20783;-80
2023/06/01 02:38:46;;;;;;;11.30;4.28;;;;;;;;;;7197413;19;19995;-79
2023/06/01 02:41:12;;;;;;;7.88;3.38;;;;;;;;;;7198670;19;20006;-79
2023/06/01 02:43:37;;;;;;;10.18;3.70;;;;;;;;;;7204448;19;20030;-79
2023/06/01 02:46:03;;;;;;;15.33;4.30;;;;;;;;;;7238746;19;20007;-78
2023/06/01 02:48:28;;;;;;;7.55;3.63;;;;;;;;;;7362562;19;20288;-77
2023/06/01 02:50:53;;;;;;;9.23;3.75;;;;;;;;;;7351607;19;20039;-78
2023/06/01 02:53:18;;;;;;;10.80;4.25;;;;;;;;;;7357625;19;20314;-78
2023/06/01 02:55:44;;;;;;;11.57;4.30;;;;;;;;;;7355323;19;20035;-79
2023/06/01 02:58:15;;;;;;;10.13;4.15;;;;;;;;;;7358494;19;20267;-78
2023/06/01 03:00:41;;;;;;;10.57;4.43;;;;;;;;;;7357898;19;20021;-79
2023/06/01 03:03:06;;;;;;;8.65;4.20;;;;;;;;;;7359310;19;21823;-78
2023/06/01 03:05:32;;;;;;;11.57;4.40;;;;;;;;;;7348825;19;19999;-78
2023/06/01 03:07:58;;;;;;;14.25;5.13;;;;;;;;;;7362333;19;20035;-79
2023/06/01 03:10:23;;;;;;;12.67;5.13;;;;;;;;;;7358669;19;20014;-79
2023/06/01 03:12:48;;;;;;;9.45;4.68;;;;;;;;;;7360982;19;20439;-79
2023/06/01 03:15:13;;;;;;;11.53;4.93;;;;;;;;;;7360668;19;20264;-79
2023/06/01 03:17:39;;;;;;;13.88;4.80;;;;;;;;;;7362600;19;20275;-80
2023/06/01 03:20:14;;;;;;;10.02;4.63;;;;;;;;;;7357630;19;20073;-79
2023/06/01 03:22:39;;;;;;;13.75;4.88;;;;;;;;;;7355273;19;20022;-79
2023/06/01 03:25:06;;;;;;;10.87;4.10;;;;;;;;;;7343844;19;20010;-79
2023/06/01 03:27:32;;;;;;;10.98;4.82;;;;;;;;;;7368546;19;20314;-79
2023/06/01 03:29:57;;;;;;;11.53;4.63;;;;;;;;;;7359768;19;20011;-79
2023/06/01 03:32:22;;;;;;;12.77;5.25;;;;;;;;;;7355190;19;20003;-80
2023/06/01 03:34:47;;;;;;;11.00;4.97;;;;;;;;;;7360229;19;20014;-78
2023/06/01 03:37:13;;;;;;;9.50;5.15;;;;;;;;;;7352234;19;20890;-79
2023/06/01 03:39:39;;;;;;;10.37;5.17;;;;;;;;;;7359320;19;20010;-78
2023/06/01 03:42:04;;;;;;;12.90;5.70;;;;;;;;;;7336690;19;20276;-78
2023/06/01 03:44:29;;;;;;;13.00;5.20;;;;;;;;;;7359324;19;20052;-78
2023/06/01 03:46:55;;;;;;;16.27;5.22;;;;;;;;;;7331382;19;20175;-79
2023/06/01 03:49:20;;;;;;;9.57;4.10;;;;;;;;;;7360171;19;20055;-78
2023/06/01 03:51:45;;;;;;;10.60;4.70;;;;;;;;;;7354724;19;20574;-78
2023/06/01 03:54:10;;;;;;;11.20;5.07;;;;;;;;;;7342919;19;21742;-78
2023/06/01 03:56:36;;;;;;;10.43;4.80;;;;;;;;;;7349965;19;20316;-78
2023/06/01 03:59:01;;;;;;;11.02;4.35;;;;;;;;;;7352703;19;20013;-78
2023/06/01 04:01:29;;;;;;;13.05;5.07;;;;;;;;;;7355391;19;20615;-78
2023/06/01 04:03:55;;;;;;;11.40;4.80;;;;;;;;;;7356401;19;20010;-78
2023/06/01 04:06:20;;;;;;;11.93;4.47;;;;;;;;;;7356369;19;20018;-78
2023/06/01 04:08:49;;;;;;;8.82;4.32;;;;;;;;;;7355153;19;20010;-77
2023/06/01 04:11:16;;;;;;;10.35;5.10;;;;;;;;;;7351205;19;20634;-78
2023/06/01 04:13:42;;;;;;;10.23;4.45;;;;;;;;;;7355676;19;20048;-78
2023/06/01 04:16:07;;;;;;;10.73;5.03;;;;;;;;;;7344414;19;20015;-78
2023/06/01 04:18:32;;;;;;;12.98;4.88;;;;;;;;;;7364284;19;20015;-78
2023/06/01 04:20:58;;;;;;;12.23;4.85;;;;;;;;;;7352667;19;20010;-78
2023/06/01 04:23:23;;;;;;;11.87;4.93;;;;;;;;;;7356198;19;20010;-79
2023/06/01 04:25:51;;;;;;;13.77;4.63;;;;;;;;;;7349126;19;20592;-78
2023/06/01 04:28:17;;;;;;;10.63;4.10;;;;;;;;;;7350275;19;20017;-78
2023/06/01 04:30:44;;;;;;;13.05;4.65;;;;;;;;;;7333100;19;20452;-80
2023/06/01 04:33:09;;;;;;;8.40;4.03;;;;;;;;;;7335448;19;20106;-79
2023/06/01 04:35:36;;;;;;;11.38;4.15;;;;;;;;;;7354972;19;20567;-79
2023/06/01 04:38:02;;;;;;;11.35;4.53;;;;;;;;;;7361248;19;20011;-77
2023/06/01 04:40:27;;;;;;;9.43;4.78;;;;;;;;;;7354043;19;20018;-77
2023/06/01 04:42:55;;;;;;;11.10;4.43;;;;;;;;;;7358230;19;20796;-77
2023/06/01 04:45:20;;;;;;;10.95;4.70;;;;;;;;;;7354794;19;20038;-77
2023/06/01 04:47:46;;;;;;;11.43;4.50;;;;;;;;;;7364219;19;20752;-77
2023/06/01 04:50:12;;;;;;;10.18;4.15;;;;;;;;;;7353733;19;24238;-77
2023/06/01 04:52:40;;;;;;;10.20;4.18;;;;;;;;;;7363207;19;19999;-77
2023/06/01 04:55:05;;;;;;;9.93;4.60;;;;;;;;;;7352741;19;20022;-77
2023/06/01 04:57:32;;;;;;;11.02;4.85;;;;;;;;;;7361351;19;20010;-77
2023/06/01 04:59:57;;;;;;;13.18;4.88;;;;;;;;;;7360616;19;20027;-77
2023/06/01 05:02:23;;;;;;;10.32;4.55;;;;;;;;;;7350967;19;20011;-77
2023/06/01 05:04:49;;;;;;;11.77;4.78;;;;;;;;;;7354730;19;20022;-77
2023/06/01 05:07:14;;;;;;;10.60;4.70;;;;;;;;;;7351714;19;20010;-78
2023/06/01 05:09:39;;;;;;;9.77;4.10;;;;;;;;;;7357260;19;20029;-77
2023/06/01 05:12:05;;;;;;;7.78;3.63;;;;;;;;;;7359311;19;20006;-78
2023/06/01 05:14:31;;;;;;;8.82;3.58;;;;;;;;;;7357796;19;20002;-78
2023/06/01 05:16:56;;;;;;;7.72;3.88;;;;;;;;;;7356307;19;20456;-77
2023/06/01 05:19:21;;;;;;;9.60;4.00;;;;;;;;;;7354055;19;20014;-77
2023/06/01 05:21:47;;;;;;;8.47;3.80;;;;;;;;;;7359999;19;20010;-78
2023/06/01 05:24:12;;;;;;;7.47;3.50;;;;;;;;;;7362993;19;20006;-78
2023/06/01 05:26:37;;;;;;;7.97;3.27;;;;;;;;;;7363724;19;20016;-77
2023/06/01 05:29:03;;;;;;;8.67;3.97;;;;;;;;;;7360608;19;20643;-78
2023/06/01 05:31:29;;;;;;;9.10;3.40;;;;;;;;;;7356999;19;20468;-78
2023/06/01 05:33:55;;;;;;;9.63;3.50;;;;;;;;;;7374942;19;20117;-78
2023/06/01 05:36:20;;;;;;;12.48;4.55;;;;;;;;;;7361484;19;20282;-77
2023/06/01 05:38:46;;;;;;;9.25;3.85;;;;;;;;;;7369210;19;20267;-78
2023/06/01 05:41:11;;;;;;;8.50;3.38;;;;;;;;;;7368422;19;20029;-78
2023/06/01 05:43:36;;;;;;;12.00;3.37;;;;;;;;;;7365072;19;20029;-78
2023/06/01 05:46:01;;;;;;;9.00;3.45;;;;;;;;;;7352870;19;20006;-77
2023/06/01 05:48:27;;;;;;;10.60;3.30;;;;;;;;;;7369676;19;20074;-77
2023/06/01 05:50:52;;;;;;;8.85;3.33;;;;;;;;;;7374159;19;20288;-77
2023/06/01 05:53:17;;;;;;;9.70;3.60;;;;;;;;;;7351937;19;20495;-77
2023/06/01 05:55:42;;;;;;;11.37;3.83;;;;;;;;;;7363263;19;20006;-77
2023/06/01 05:58:08;;;;;;;10.43;2.93;;;;;;;;;;7358152;19;20026;-77
2023/06/01 06:00:35;;;;;;;12.18;3.78;;;;;;;;;;7351948;19;20018;-77
2023/06/01 06:03:00;;;;;;;9.30;3.40;;;;;;;;;;7347659;19;20023;-77
2023/06/01 06:05:25;;;;;;;10.00;3.67;;;;;;;;;;7333300;19;20026;-77
2023/06/01 06:07:50;;;;;;;6.73;3.20;;;;;;;;;;7361508;19;20020;-77
2023/06/01 06:10:15;;;;;;;8.63;3.53;;;;;;;;;;7345211;19;20006;-77
2023/06/01 06:12:41;;;;;;;11.33;3.03;;;;;;;;;;7299992;19;20919;-78
2023/06/01 06:15:06;;;;;;;12.57;3.70;;;;;;;;;;7352837;19;20397;-77
2023/06/01 06:17:32;;;;;;;9.30;3.70;;;;;;;;;;7286823;19;20014;-78
2023/06/01 06:19:57;;;;;;;15.70;4.43;;;;;;;;;;7354499;19;20485;-77
2023/06/01 06:22:22;;;;;;;11.85;3.90;;;;;;;;;;7348489;19;20701;-77
2023/06/01 06:24:47;;;;;;;10.60;4.40;;;;;;;;;;7335718;19;20078;-77
2023/06/01 06:27:12;;;;;;;12.70;4.00;;;;;;;;;;7343581;19;20014;-77
2023/06/01 06:29:38;;;;;;;14.68;3.83;;;;;;;;;;7355641;19;20006;-77
2023/06/01 06:32:03;;;;;;;8.07;2.83;;;;;;;;;;7291113;19;21150;-77
2023/06/01 06:34:35;;;;;;;7.40;3.22;;;;;;;;;;7345155;19;20272;-77
2023/06/01 06:37:02;;;;;;;11.75;4.07;;;;;;;;;;7358256;19;20015;-78
2023/06/01 06:39:27;;;;;;;7.40;3.20;;;;;;;;;;7327001;19;20274;-77
2023/06/01 06:41:52;;;;;;;13.03;3.97;;;;;;;;;;7322743;19;20460;-77
2023/06/01 06:44:17;;;;;;;10.00;3.13;;;;;;;;;;7330570;19;20006;-77
2023/06/01 06:46:43;;;;;;;11.90;4.07;;;;;;;;;;7328424;19;20010;-78
2023/06/01 06:49:09;;;;;;;10.23;3.10;;;;;;;;;;7324484;19;21106;-78
2023/06/01 06:51:36;;;;;;;11.50;3.72;;;;;;;;;;7322334;19;20373;-78
2023/06/01 06:54:05;;;;;;;10.68;3.22;;;;;;;;;;7351784;19;20017;-78
2023/06/01 06:56:30;;;;;;;8.60;3.15;;;;;;;;;;7316819;19;20006;-79
2023/06/01 06:58:55;;;;;;;8.55;3.17;;;;;;;;;;7305523;19;20030;-78
2023/06/01 07:01:21;;;;;;;8.93;3.50;;;;;;;;;;7309628;19;20116;-78
2023/06/01 07:03:46;;;;;;;9.07;3.40;;;;;;;;;;7346835;19;20506;-78
2023/06/01 07:06:11;;;;;;;7.13;3.03;;;;;;;;;;7323341;19;20010;-77
2023/06/01 07:08:38;;;;;;;10.05;3.28;;;;;;;;;;7342456;19;20729;-79
2023/06/01 07:11:04;;;;;;;8.70;3.53;;;;;;;;;;7357698;19;20298;-77
2023/06/01 07:13:29;;;;;;;6.83;3.07;;;;;;;;;;7347837;19;20232;-78
2023/06/01 07:15:54;;;;;;;8.68;3.10;;;;;;;;;;7332956;19;20080;-78
2023/06/01 07:18:19;;;;;;;12.03;3.20;;;;;;;;;;7345829;19;20013;-78
2023/06/01 07:20:45;;;;;;;8.07;3.10;;;;;;;;;;7352365;19;20023;-77
2023/06/01 07:23:12;;;;;;;8.57;2.90;;;;;;;;;;7340369;19;20018;-78
2023/06/01 07:25:37;;;;;;;9.10;3.08;;;;;;;;;;7362498;19;20280;-78
2023/06/01 07:28:06;;;;;;;8.20;2.93;;;;;;;;;;7349510;19;20002;-78
2023/06/01 07:30:32;;;;;;;10.07;3.00;;;;;;;;;;7317613;19;20870;-78
2023/06/01 07:32:57;;;;;;;12.53;3.57;;;;;;;;;;7349205;19;20018;-77
2023/06/01 07:35:22;;;;;;;10.40;3.33;;;;;;;;;;7357456;19;20040;-78
2023/06/01 07:37:47;;;;;;;7.67;2.97;;;;;;;;;;7353892;19;20014;-78
2023/06/01 07:40:13;;;;;;;8.95;3.38;;;;;;;;;;7344515;19;20659;-77
2023/06/01 07:42:38;;;;;;;10.93;3.25;;;;;;;;;;7332060;19;20022;-78
2023/06/01 07:45:05;;;;;;;10.50;3.17;;;;;;;;;;7355820;19;19999;-78
2023/06/01 07:47:31;;;;;;;9.98;3.03;;;;;;;;;;7342574;19;20077;-78
2023/06/01 07:49:56;;;;;;;9.77;3.40;;;;;;;;;;7363848;19;20020;-78
2023/06/01 07:52:21;;;;;;;8.93;3.53;;;;;;;;;;7322441;19;20014;-78
2023/06/01 07:54:47;;;;;;;11.97;3.20;;;;;;;;;;7350243;19;20260;-78
2023/06/01 07:57:12;;;;;;;10.23;3.42;;;;;;;;;;7331042;19;20282;-77
2023/06/01 07:59:38;;;;;;;7.03;3.10;;;;;;;;;;7361722;19;20337;-78
2023/06/01 08:02:03;;;;;;;9.37;3.47;;;;;;;;;;7343637;19;20158;-78
2023/06/01 08:04:33;;;;;;;7.63;2.70;;;;;;;;;;7355321;19;20022;-78
2023/06/01 08:06:58;;;;;;;8.20;3.53;;;;;;;;;;7340473;19;20006;-79
2023/06/01 08:09:23;;;;;;;11.88;3.30;;;;;;;;;;7341597;19;20043;-79
2023/06/01 08:11:49;;;;;;;9.43;3.50;;;;;;;;;;7342146;19;20523;-78
2023/06/01 08:14:15;;;;;;;8.05;2.90;;;;;;;;;;7336888;19;20768;-77
2023/06/01 08:16:40;;;;;;;9.25;3.08;;;;;;;;;;7351405;19;20494;-79
2023/06/01 08:19:06;;;;;;;9.82;3.10;;;;;;;;;;7356845;19;20006;-78
2023/06/01 08:21:31;;;;;;;9.83;3.53;;;;;;;;;;7362088;19;20071;-78
2023/06/01 08:23:56;;;;;;;8.30;2.97;;;;;;;;;;7344712;19;20368;-79
2023/06/01 08:26:22;;;;;;;7.53;2.50;;;;;;;;;;7312027;19;20090;-79
2023/06/01 08:28:51;;;;;;;6.88;2.67;;;;;;;;;;7357878;19;20783;-79
2023/06/01 08:31:17;;;;;;;10.98;3.05;;;;;;;;;;7350991;19;20021;-79
2023/06/01 08:33:42;;;;;;;10.25;3.10;;;;;;;;;;7361044;19;20065;-78
2023/06/01 08:36:07;;;;;;;7.77;2.67;;;;;;;;;;7360476;19;20029;-78
2023/06/01 08:38:33;;;;;;;8.57;2.92;;;;;;;;;;7343726;19;20010;-77
2023/06/01 08:40:59;;;;;;;9.67;3.00;;;;;;;;;;7351497;19;20007;-78
2023/06/01 08:43:27;;;;;;;12.20;3.08;;;;;;;;;;7353078;19;20007;-78
2023/06/01 08:45:55;;;;;;;9.95;2.85;;;;;;;;;;7361077;19;20640;-79
2023/06/01 08:48:20;;;;;;;7.70;2.80;;;;;;;;;;7336853;19;20023;-78
2023/06/01 08:50:48;;;;;;;8.65;2.83;;;;;;;;;;7338282;19;20028;-78
2023/06/01 08:53:14;;;;;;;8.27;3.42;;;;;;;;;;7350672;19;20026;-78
2023/06/01 08:55:39;;;;;;;6.85;2.58;;;;;;;;;;7335019;19;20007;-78
2023/06/01 08:58:05;;;;;;;8.30;2.70;;;;;;;;;;7367443;19;20010;-79
2023/06/01 09:00:32;;;;;;;12.20;3.42;;;;;;;;;;7345201;19;20036;-78
2023/06/01 09:02:58;;;;;;;7.70;3.20;;;;;;;;;;7357213;19;21315;-78
2023/06/01 09:05:23;;;;;;;7.28;3.00;;;;;;;;;;7365492;19;20606;-78
2023/06/01 09:07:49;;;;;;;7.57;2.73;;;;;;;;;;7364285;19;20013;-78
2023/06/01 09:10:14;;;;;;;8.60;3.08;;;;;;;;;;7355834;19;20018;-78
2023/06/01 09:12:50;;;;;;;8.23;3.00;;;;;;;;;;7352333;19;23191;-79
2023/06/01 09:15:16;;;;;;;9.63;2.65;;;;;;;;;;7363458;19;20010;-78
2023/06/01 09:17:42;;;;;;;12.20;3.30;;;;;;;;;;7368124;19;20409;-78
2023/06/01 09:20:14;;;;;;;11.57;3.20;;;;;;;;;;7360432;19;20031;-77
2023/06/01 09:22:44;;;;;;;11.52;2.95;;;;;;;;;;7283320;19;20223;-78
2023/06/01 09:25:09;;;;;;;5.97;2.70;;;;;;;;;;7357048;19;20007;-78
2023/06/01 09:27:42;;;;;;;7.90;2.97;;;;;;;;;;7344827;19;20855;-77
2023/06/01 09:30:07;;;;;;;8.52;3.10;;;;;;;;;;7360635;19;20014;-78
2023/06/01 09:32:33;;;;;;;7.28;2.83;;;;;;;;;;7349572;19;20003;-78
2023/06/01 09:34:58;;;;;;;10.98;2.83;;;;;;;;;;7324992;19;20098;-78
2023/06/01 09:37:23;;;;;;;10.00;3.20;;;;;;;;;;7336099;19;20010;-78
2023/06/01 09:39:49;;;;;;;7.70;3.13;;;;;;;;;;7349404;19;20023;-77
2023/06/01 09:42:14;;;;;;;10.27;3.20;;;;;;;;;;7310429;19;20011;-78
2023/06/01 09:44:40;;;;;;;11.07;3.38;;;;;;;;;;7351010;19;20011;-78
2023/06/01 09:47:09;;;;;;;11.18;3.17;;;;;;;;;;7346673;19;20472;-78
2023/06/01 09:49:39;;;;;;;8.77;3.45;;;;;;;;;;7353573;19;20454;-78
2023/06/01 09:52:04;;;;;;;10.93;3.72;;;;;;;;;;7349740;19;20622;-78
2023/06/01 09:54:30;;;;;;;8.75;3.35;;;;;;;;;;7339643;19;20010;-79
2023/06/01 09:56:56;;;;;;;8.23;4.13;;;;;;;;;;7361348;19;20094;-77
2023/06/01 09:59:22;;;;;;;13.50;3.95;;;;;;;;;;7365010;19;20770;-77
2023/06/01 10:01:49;;;;;;;11.65;4.28;;;;;;;;;;7355529;19;20007;-78
2023/06/01 10:04:17;;;;;;;10.50;4.15;;;;;;;;;;7350078;19;20070;-77
2023/06/01 10:06:42;;;;;;;10.43;4.53;;;;;;;;;;7346034;19;20050;-78
2023/06/01 10:09:12;;;;;;;9.52;4.65;;;;;;;;;;7347795;19;20078;-78
2023/06/01 10:11:38;;;;;;;9.63;3.70;;;;;;;;;;7334556;19;20931;-78
2023/06/01 10:14:03;;;;;;;10.37;4.27;;;;;;;;;;7353176;19;20007;-78
2023/06/01 10:16:28;;;;;;;12.07;4.60;;;;;;;;;;7349235;19;20007;-78
2023/06/01 10:18:54;;;;;;;13.47;4.77;;;;;;;;;;7363292;19;20284;-78
2023/06/01 10:21:20;;;;;;;8.15;4.63;;;;;;;;;;7350530;19;20050;-78
2023/06/01 10:23:45;;;;;;;9.85;4.43;;;;;;;;;;7353971;19;20014;-78
2023/06/01 10:26:12;;;;;;;11.80;4.60;;;;;;;;;;7361354;19;20010;-77
2023/06/01 10:28:38;;;;;;;13.90;4.80;;;;;;;;;;7333733;19;20007;-77
2023/06/01 10:31:21;;;;;;;9.15;4.47;;;;;;;;;;7337909;19;20013;-78
2023/06/01 10:33:46;;;;;;;;;;;;;;;;;;7360597;19;20009;-78
2023/06/01 10:36:12;;;;;;;10.15;4.05;;;;;;;;;;7361375;19;20198;-78
2023/06/01 10:38:37;;;;;;;11.32;4.90;;;;;;;;;;7356152;19;20002;-78
2023/06/01 10:41:22;;;;;;;11.37;4.17;;;;;;;;;;7343028;19;20476;-78
2023/06/01 10:43:47;;;;;;;15.25;4.38;;;;;;;;;;7356164;19;20028;-78
2023/06/01 10:46:31;;;;;;;9.60;4.00;;;;;;;;;;7354597;19;20010;-78
2023/06/01 10:48:56;;;;;;;;;;;;;;;;;;7362794;19;20010;-78
2023/06/01 10:51:24;;;;;;;12.38;4.47;;;;;;;;;;7355654;19;19922;-80
2023/06/01 10:53:49;;;;;;;13.10;4.60;;;;;;;;;;7356710;19;20018;-80
2023/06/01 10:56:23;;;;;;;9.10;4.67;;;;;;;;;;7322591;19;20007;-80
2023/06/01 10:59:09;;;;;;;8.77;4.10;;;;;;;;;;7361163;19;20384;-80
2023/06/01 11:01:38;;;;;;;11.52;4.43;;;;;;;;;;7336078;19;20022;-80
2023/06/01 11:04:04;;;;;;;10.30;4.93;;;;;;;;;;7357638;19;20010;-80
2023/06/01 11:06:31;;;;;;;7.82;3.90;;;;;;;;;;7356177;19;20014;-80
2023/06/01 11:08:57;;;;;;;7.70;4.03;;;;;;;;;;7363292;19;20010;-80
2023/06/01 11:11:23;;;;;;;11.63;4.53;;;;;;;;;;7341223;19;20910;-84
2023/06/01 11:14:08;;;;;;;9.80;4.32;;;;;;;;;;7366631;19;20098;-81
2023/06/01 11:16:33;;;;;;;9.02;4.65;;;;;;;;;;7347544;19;21283;-80
2023/06/01 11:18:59;;;;;;;9.38;4.47;;;;;;;;;;7363226;19;20013;-79
2023/06/01 11:21:29;;;;;;;9.60;4.57;;;;;;;;;;7353940;19;20013;-80
2023/06/01 11:23:55;;;;;;;9.13;4.50;;;;;;;;;;7353155;19;20041;-83
2023/06/01 11:26:24;;;;;;;9.48;4.50;;;;;;;;;;7356697;19;20025;-79
2023/06/01 11:28:49;;;;;;;10.23;4.60;;;;;;;;;;7367958;19;20013;-80
2023/06/01 11:31:16;;;;;;;10.73;5.00;;;;;;;;;;7358073;19;20006;-80
2023/06/01 11:33:46;;;;;;;10.55;4.60;;;;;;;;;;7359590;19;20017;-80
2023/06/01 11:36:14;;;;;;;8.48;5.03;;;;;;;;;;7362273;19;20858;-79
2023/06/01 11:38:43;;;;;;;12.35;4.68;;;;;;;;;;7341698;19;20385;-80
2023/06/01 11:41:08;;;;;;;9.50;5.03;;;;;;;;;;7340714;19;20444;-80
2023/06/01 11:43:34;;;;;;;12.88;4.60;;;;;;;;;;7348619;19;20018;-80
2023/06/01 11:46:00;;;;;;;8.63;4.18;;;;;;;;;;7361024;19;20372;-81
2023/06/01 11:48:25;;;;;;;10.68;5.70;;;;;;;;;;7355356;19;20017;-79
2023/06/01 11:50:51;;;;;;;10.80;4.93;;;;;;;;;;7362081;19;20385;-80
2023/06/01 11:53:16;;;;;;;10.18;5.15;;;;;;;;;;7364671;19;20035;-80
2023/06/01 11:55:51;;;;;;;8.83;5.17;;;;;;;;;;7354713;19;22375;-80
2023/06/01 11:58:22;;;;;;;13.10;5.18;;;;;;;;;;7365331;19;20007;-80
2023/06/01 12:00:47;;;;;;;11.05;5.63;;;;;;;;;;7347737;19;20006;-79
2023/06/01 12:03:12;;;;;;;10.85;5.93;;;;;;;;;;7357854;19;20021;-79
2023/06/01 12:05:38;;;;;;;9.48;4.95;;;;;;;;;;7359084;19;20003;-80
2023/06/01 12:08:04;;;;;;;11.65;5.10;;;;;;;;;;7363465;19;20410;-81
2023/06/01 12:10:30;;;;;;;11.35;5.63;;;;;;;;;;7359035;19;20070;-80
2023/06/01 12:12:55;;;;;;;10.40;5.47;;;;;;;;;;7362449;19;20125;-80
2023/06/01 12:15:20;;;;;;;35.80;6.90;;;;;;;;;;7345128;19;20087;-80
2023/06/01 12:17:49;;;;;;;9.07;5.40;;;;;;;;;;7336948;19;20441;-81
2023/06/01 12:20:30;;;;;;;9.93;5.57;;;;;;;;;;7363560;19;20334;-79
2023/06/01 12:22:56;;;;;;;10.85;5.90;;;;;;;;;;7365839;19;20010;-79
2023/06/01 12:25:22;;;;;;;12.07;5.32;;;;;;;;;;7355412;19;20306;-80
2023/06/01 12:28:00;;;;;;;10.23;5.05;;;;;;;;;;7353558;19;20307;-79
2023/06/01 12:30:26;;;;;;;10.10;6.13;;;;;;;;;;7340827;19;20015;-79
2023/06/01 12:32:51;;;;;;;12.93;6.70;;;;;;;;;;7356558;19;20047;-81
2023/06/01 12:35:17;;;;;;;12.52;6.05;;;;;;;;;;7360365;19;20774;-77
2023/06/01 12:37:43;;;;;;;9.45;5.15;;;;;;;;;;7355869;19;20010;-79
2023/06/01 12:40:09;;;;;;;8.32;4.60;;;;;;;;;;7355721;19;20066;-78
2023/06/01 12:42:36;;;;;;;11.57;5.65;;;;;;;;;;7350299;19;20055;-79
2023/06/01 12:45:01;;;;;;;13.23;6.32;;;;;;;;;;7364071;19;20010;-81
2023/06/01 12:47:26;;;;;;;10.25;5.60;;;;;;;;;;7346859;19;20574;-77
2023/06/01 12:50:02;;;;;;;10.88;5.68;;;;;;;;;;7366403;19;20040;-80
2023/06/01 12:52:27;;;;;;;11.15;6.22;;;;;;;;;;7353557;19;20010;-78
2023/06/01 12:54:53;;;;;;;9.33;5.90;;;;;;;;;;7360749;19;20014;-78
2023/06/01 12:57:18;;;;;;;9.70;5.68;;;;;;;;;;7353043;19;20402;-80
2023/06/01 12:59:44;;;;;;;11.73;6.77;;;;;;;;;;7358934;19;20010;-79
2023/06/01 13:02:09;;;;;;;14.02;7.13;;;;;;;;;;7358794;19;20271;-80
2023/06/01 13:04:34;;;;;;;12.13;6.85;;;;;;;;;;7347971;19;20002;-79
2023/06/01 13:07:01;;;;;;;14.00;6.17;;;;;;;;;;7356115;19;20017;-79
2023/06/01 13:09:27;;;;;;;10.57;6.38;;;;;;;;;;7350183;19;20022;-80
2023/06/01 13:11:52;;;;;;;13.88;7.40;;;;;;;;;;7348846;19;20021;-80
2023/06/01 13:14:18;;;;;;;13.77;7.80;;;;;;;;;;7351606;19;21768;-79
2023/06/01 13:16:43;;;;;;;11.63;7.03;;;;;;;;;;7341547;19;20446;-81
2023/06/01 13:19:09;;;;;;;10.35;6.50;;;;;;;;;;7361924;19;20271;-79
2023/06/01 13:21:34;;;;;;;13.00;7.68;;;;;;;;;;7346041;19;20018;-80
2023/06/01 13:23:59;;;;;;;17.20;9.50;;;;;;;;;;7356636;19;20003;-79
2023/06/01 13:26:25;;;;;;;14.40;8.93;;;;;;;;;;7355671;19;20014;-79
2023/06/01 13:28:50;;;;;;;14.68;9.23;;;;;;;;;;7359139;19;20271;-79
2023/06/01 13:31:15;;;;;;;14.75;9.25;;;;;;;;;;7351292;19;20035;-81
2023/06/01 13:33:40;;;;;;;17.13;9.80;;;;;;;;;;7357037;19;20514;-80
2023/06/01 13:36:06;;;;;;;16.00;9.98;;;;;;;;;;7344148;19;20011;-81
2023/06/01 13:38:31;;;;;;;14.20;8.52;;;;;;;;;;7355102;19;20066;-80
2023/06/01 13:40:56;;;;;;;16.73;9.43;;;;;;;;;;7357692;19;20010;-80
2023/06/01 13:43:21;;;;;;;17.27;9.53;;;;;;;;;;7363270;19;20011;-79
2023/06/01 13:45:46;;;;;;;15.60;9.50;;;;;;;;;;7351948;19;20015;-81
2023/06/01 13:48:12;;;;;;;14.45;9.05;;;;;;;;;;7362583;19;20011;-80
2023/06/01 13:50:37;;;;;;;14.53;9.30;;;;;;;;;;7360036;19;20006;-81
2023/06/01 13:53:05;;;;;;;13.73;8.90;;;;;;;;;;7352619;19;20002;-81
2023/06/01 13:55:30;;;;;;;13.23;8.80;;;;;;;;;;7361316;19;20824;-79
2023/06/01 13:57:55;;;;;;;18.60;10.07;;;;;;;;;;7360572;19;20010;-78
2023/06/01 14:00:21;;;;;;;14.90;8.93;;;;;;;;;;7359933;19;20294;-79
2023/06/01 14:02:46;;;;;;;17.77;9.68;;;;;;;;;;7361399;19;20383;-78
2023/06/01 14:05:12;;;;;;;15.03;9.73;;;;;;;;;;7368852;19;20428;-78
2023/06/01 14:07:37;;;;;;;13.38;9.27;;;;;;;;;;7357241;19;20011;-80
2023/06/01 14:10:03;;;;;;;17.20;9.90;;;;;;;;;;7356040;19;20027;-78
2023/06/01 14:12:28;;;;;;;14.73;10.05;;;;;;;;;;7366425;19;20284;-78
2023/06/01 14:14:53;;;;;;;13.93;9.03;;;;;;;;;;7366654;19;20599;-79
2023/06/01 14:17:18;;;;;;;16.57;8.50;;;;;;;;;;7351000;19;20007;-78
2023/06/01 14:19:43;;;;;;;15.83;8.90;;;;;;;;;;7357692;19;20015;-79
2023/06/01 14:22:09;;;;;;;16.27;8.17;;;;;;;;;;7369531;19;20027;-81
2023/06/01 14:24:34;;;;;;;14.50;8.33;;;;;;;;;;7357552;19;20018;-80
2023/06/01 14:26:59;;;;;;;14.93;8.57;;;;;;;;;;7361671;19;20002;-79
2023/06/01 14:29:24;;;;;;;13.50;8.97;;;;;;;;;;7362714;19;20082;-79